Time;durP1;ratioP1;P1;durP2;ratioP2;P2;SDS_P1;SDS_P2;PMS_P1;PMS_P2;Temp;Humidity;BMP_temperature;BMP_pressure;BME280_temperature;BME280_humidity;BME280_pressure;Samples;Min_cycle;Max_cycle;Signal;HPM_P1;HPM_P2
2022/04/16 00:00:27;;;;;;;3.85;2.35;;;;;;;5.53;100.00;97705.50;5018444;28;20480;-69
2022/04/16 00:02:54;;;;;;;5.50;2.92;;;;;;;5.43;100.00;97710.25;5027094;28;20044;-69
2022/04/16 00:05:20;;;;;;;4.25;2.38;;;;;;;5.23;100.00;97705.53;5021586;28;20029;-70
2022/04/16 00:08:06;;;;;;;4.93;2.72;;;;;;;5.23;100.00;97705.53;5023762;28;20057;-70
2022/04/16 00:10:32;;;;;;;5.30;2.80;;;;;;;5.06;100.00;97704.09;5019568;28;20264;-71
2022/04/16 00:12:57;;;;;;;6.20;3.00;;;;;;;5.24;100.00;97696.56;5022453;28;20381;-71
2022/04/16 00:15:22;;;;;;;6.07;3.00;;;;;;;5.25;100.00;97697.38;5022433;28;20045;-69
2022/04/16 00:17:49;;;;;;;5.85;2.97;;;;;;;5.34;100.00;97695.44;5023516;28;20492;-70
2022/04/16 00:20:15;;;;;;;6.50;3.55;;;;;;;5.32;100.00;97696.47;5020641;28;20347;-69
2022/04/16 00:22:42;;;;;;;7.07;3.92;;;;;;;4.99;100.00;97696.03;5023180;28;20036;-69
2022/04/16 00:25:08;;;;;;;5.38;3.53;;;;;;;5.02;100.00;97700.13;5024829;28;20034;-69
2022/04/16 00:27:34;;;;;;;7.25;3.97;;;;;;;5.13;100.00;97696.19;5022354;28;20043;-69
2022/04/16 00:30:01;;;;;;;6.88;3.83;;;;;;;5.10;100.00;97699.22;5023456;28;20148;-71
2022/04/16 00:32:27;;;;;;;6.97;3.97;;;;;;;5.13;100.00;97696.19;5028531;28;20171;-71
2022/04/16 00:34:53;;;;;;;7.03;4.18;;;;;;;5.11;100.00;97685.75;5028714;28;20399;-69
2022/04/16 00:37:18;;;;;;;6.47;4.03;;;;;;;5.12;100.00;97694.53;5025688;28;20556;-68
2022/04/16 00:39:44;;;;;;;7.45;4.30;;;;;;;5.12;100.00;97692.72;5026928;28;20472;-70
2022/04/16 00:42:09;;;;;;;7.53;4.30;;;;;;;4.97;100.00;97692.72;5028785;28;20037;-69
2022/04/16 00:44:35;;;;;;;8.60;5.03;;;;;;;5.08;100.00;97696.75;5026820;28;20091;-69
2022/04/16 00:47:04;;;;;;;6.97;4.50;;;;;;;5.01;100.00;97690.53;5026925;28;20311;-69
2022/04/16 00:49:30;;;;;;;6.88;4.40;;;;;;;5.12;100.00;97692.72;5026315;28;20084;-68
2022/04/16 00:51:56;;;;;;;8.75;4.70;;;;;;;5.00;100.00;97684.41;5027762;28;20564;-69
2022/04/16 00:54:21;;;;;;;7.80;4.80;;;;;;;5.09;100.00;97687.78;5035557;28;20512;-69
2022/04/16 00:56:47;;;;;;;7.80;5.00;;;;;;;5.16;100.00;97694.00;5027707;28;20584;-69
2022/04/16 00:59:12;;;;;;;9.57;5.20;;;;;;;5.31;100.00;97689.50;5028257;28;20045;-68
2022/04/16 01:01:38;;;;;;;8.90;5.35;;;;;;;5.29;100.00;97683.56;5026655;28;20029;-69
2022/04/16 01:04:03;;;;;;;8.95;5.28;;;;;;;5.33;100.00;97694.63;5026060;28;20472;-69
2022/04/16 01:06:39;;;;;;;8.52;5.13;;;;;;;5.39;100.00;97698.38;5026827;28;20037;-70
2022/04/16 01:09:05;;;;;;;12.48;5.70;;;;;;;5.34;100.00;97695.44;5024916;28;20103;-69
2022/04/16 01:11:34;;;;;;;10.25;5.78;;;;;;;5.39;100.00;97693.06;5030367;28;20045;-69
2022/04/16 01:14:01;;;;;;;9.52;5.70;;;;;;;5.22;100.00;97695.94;5028978;28;20045;-68
2022/04/16 01:16:31;;;;;;;10.18;6.07;;;;;;;5.29;100.00;97690.69;5027434;28;20362;-70
2022/04/16 01:18:57;;;;;;;11.70;5.97;;;;;;;5.21;100.00;97696.09;5024119;28;20034;-69
2022/04/16 01:21:22;;;;;;;16.38;7.63;;;;;;;5.18;100.00;97694.63;5024898;28;20379;-71
2022/04/16 01:23:48;;;;;;;15.02;7.28;;;;;;;5.14;100.00;97688.06;5026493;28;20049;-69
2022/04/16 01:26:13;;;;;;;13.98;5.88;;;;;;;5.09;100.00;97694.91;5027549;28;20418;-69
2022/04/16 01:28:40;;;;;;;10.80;5.82;;;;;;;5.09;100.00;97701.06;5026216;28;20037;-69
2022/04/16 01:31:07;;;;;;;10.52;6.50;;;;;;;5.11;100.00;97700.84;5023722;28;20423;-69
2022/04/16 01:33:32;;;;;;;13.60;7.65;;;;;;;5.18;100.00;97697.28;5026723;28;20586;-69
2022/04/16 01:35:58;;;;;;;18.40;8.75;;;;;;;5.07;100.00;97705.72;5026543;28;20408;-71
2022/04/16 01:38:26;;;;;;;13.07;7.07;;;;;;;5.18;100.00;97707.91;5026569;28;20560;-70
2022/04/16 01:40:56;;;;;;;15.02;7.82;;;;;;;5.02;100.00;97698.31;5060287;28;20457;-69
2022/04/16 01:43:21;;;;;;;13.75;6.70;;;;;;;5.00;100.00;97696.84;5028040;28;20029;-70
2022/04/16 01:45:49;;;;;;;12.30;6.97;;;;;;;5.02;100.00;97693.00;5026339;28;20520;-69
2022/04/16 01:48:16;;;;;;;10.20;6.20;;;;;;;4.96;100.00;97700.84;5025248;28;20503;-69
2022/04/16 01:50:41;;;;;;;11.98;6.80;;;;;;;4.82;100.00;97704.31;5024935;28;20047;-68
2022/04/16 01:53:07;;;;;;;11.93;6.53;;;;;;;4.85;100.00;97704.78;5025368;28;20037;-70
2022/04/16 01:55:35;;;;;;;11.02;6.00;;;;;;;4.92;100.00;97700.41;5028748;28;20037;-69
2022/04/16 01:58:03;;;;;;;10.60;6.55;;;;;;;4.94;100.00;97700.22;5026960;28;20056;-70
2022/04/16 02:00:31;;;;;;;10.18;6.28;;;;;;;5.00;100.00;97702.16;5025419;28;20045;-71
2022/04/16 02:02:57;;;;;;;11.23;5.72;;;;;;;4.85;100.00;97701.31;5026613;28;20029;-68
2022/04/16 02:05:23;;;;;;;15.40;7.25;;;;;;;4.95;100.00;97712.47;5027379;28;20048;-71
2022/04/16 02:07:50;;;;;;;10.13;6.03;;;;;;;4.76;100.00;97708.53;5028775;28;20040;-69
2022/04/16 02:10:16;;;;;;;10.65;5.82;;;;;;;4.53;100.00;97710.41;5025367;28;20028;-71
2022/04/16 02:12:43;;;;;;;10.77;6.50;;;;;;;4.52;100.00;97703.47;5028090;28;20086;-69
2022/04/16 02:15:09;;;;;;;12.18;6.47;;;;;;;4.43;100.00;97705.34;5025117;28;20472;-70
2022/04/16 02:17:39;;;;;;;11.25;6.65;;;;;;;4.49;100.00;97712.59;5025883;28;20076;-69
2022/04/16 02:20:07;;;;;;;11.40;6.32;;;;;;;4.57;100.00;97714.34;5056741;28;20076;-70
2022/04/16 02:22:39;;;;;;;12.00;7.18;;;;;;;4.60;100.00;97717.47;5027899;28;20033;-68
2022/04/16 02:25:05;;;;;;;11.25;6.75;;;;;;;4.63;100.00;97718.94;5025200;28;20045;-71
2022/04/16 02:27:31;;;;;;;10.52;6.47;;;;;;;4.73;100.00;97715.00;5025539;28;20242;-70
2022/04/16 02:29:57;;;;;;;11.52;6.53;;;;;;;4.50;100.00;97716.88;5025093;28;20388;-69
2022/04/16 02:32:23;;;;;;;11.68;6.55;;;;;;;4.36;100.00;97725.66;5023683;28;20036;-71
2022/04/16 02:34:51;;;;;;;14.43;7.82;;;;;;;4.33;100.00;97715.38;5035061;28;20103;-69
2022/04/16 02:37:17;;;;;;;10.43;6.90;;;;;;;4.42;100.00;97714.31;5027672;28;20034;-70
2022/04/16 02:39:42;;;;;;;11.65;6.15;;;;;;;4.31;100.00;97718.22;5025134;28;20037;-68
2022/04/16 02:42:08;;;;;;;10.55;6.38;;;;;;;4.39;100.00;97712.03;5025075;28;20071;-68
2022/04/16 02:47:17;;;;;;;12.10;6.03;;;;;;;4.27;100.00;97722.22;5023832;28;20567;-70
2022/04/16 02:49:43;;;;;;;14.75;5.90;;;;;;;4.28;100.00;97721.25;5026295;28;20044;-71
2022/04/16 02:52:09;;;;;;;11.30;6.63;;;;;;;4.33;100.00;97733.94;5024156;28;20483;-71
2022/04/16 02:54:38;;;;;;;13.73;7.32;;;;;;;4.31;100.00;97728.00;5025684;28;20409;-69
2022/04/16 02:57:03;;;;;;;14.32;7.25;;;;;;;4.34;100.00;97732.94;5024765;28;20041;-70
2022/04/16 02:59:29;;;;;;;11.27;6.88;;;;;;;4.34;100.00;97725.81;5025432;28;20032;-70
2022/04/16 03:01:55;;;;;;;12.13;6.63;;;;;;;4.15;100.00;97727.13;5023954;28;20124;-69
2022/04/16 03:04:22;;;;;;;12.32;6.95;;;;;;;4.23;100.00;97728.88;5028138;28;20036;-71
2022/04/16 03:06:47;;;;;;;12.18;6.47;;;;;;;4.35;100.00;97726.63;5025881;28;20026;-68
2022/04/16 03:09:12;;;;;;;10.80;6.55;;;;;;;4.44;100.00;97726.41;5023513;28;20033;-68
2022/04/16 03:11:38;;;;;;;11.25;6.90;;;;;;;4.44;100.00;97734.34;5024714;28;20044;-69
2022/04/16 03:17:31;;;;;;;10.95;7.05;;;;;;;4.42;100.00;97735.50;5021575;28;20559;-69
2022/04/16 03:19:34;;;;;;;11.20;6.18;;;;;;;3.94;100.00;97740.19;5023899;28;20041;-69
2022/04/16 03:21:59;;;;;;;11.52;6.90;;;;;;;3.71;100.00;97741.97;5023100;28;20404;-69
2022/04/16 03:24:25;;;;;;;15.23;7.45;;;;;;;3.55;100.00;97743.69;5022381;28;20486;-68
2022/04/16 03:26:51;;;;;;;11.75;6.93;;;;;;;3.73;100.00;97747.91;5025537;28;20552;-68
2022/04/16 03:29:16;;;;;;;12.15;7.53;;;;;;;3.59;100.00;97741.53;5025056;28;20598;-69
2022/04/16 03:31:42;;;;;;;12.77;7.28;;;;;;;3.66;100.00;97745.16;5023172;28;20741;-68
2022/04/16 03:34:07;;;;;;;14.15;7.38;;;;;;;3.71;100.00;97742.78;5024063;28;20545;-69
2022/04/16 03:36:33;;;;;;;12.05;7.50;;;;;;;3.74;100.00;97731.06;5026134;28;20480;-69
2022/04/16 03:38:58;;;;;;;11.88;6.82;;;;;;;3.80;100.00;97743.56;5025766;28;20563;-71
2022/04/16 03:41:23;;;;;;;12.30;7.20;;;;;;;3.62;100.00;97739.38;5025420;28;20048;-71
2022/04/16 03:43:49;;;;;;;16.67;6.95;;;;;;;3.64;100.00;97750.59;5022708;28;20045;-68
2022/04/16 03:46:14;;;;;;;13.65;7.53;;;;;;;3.69;100.00;97742.16;5023146;28;20046;-69
2022/04/16 03:48:40;;;;;;;17.67;8.13;;;;;;;3.63;100.00;97743.66;5024599;28;20033;-69
2022/04/16 03:51:05;;;;;;;10.85;7.07;;;;;;;3.63;100.00;97748.13;5031786;28;20576;-70
2022/04/16 03:53:33;;;;;;;16.25;7.88;;;;;;;3.77;100.00;97754.50;5025161;28;20515;-71
2022/04/16 04:01:26;;;;;;;11.90;7.30;;;;;;;3.97;100.00;97753.09;5023178;28;20065;-69
2022/04/16 04:03:51;;;;;;;12.88;7.15;;;;;;;3.94;100.00;97749.94;5025184;28;20280;-68
2022/04/16 04:06:17;;;;;;;14.07;7.57;;;;;;;3.81;100.00;97756.66;5026323;28;20041;-68
2022/04/16 04:08:42;;;;;;;24.90;11.73;;;;;;;3.80;100.00;97754.16;5028322;28;20175;-71
2022/04/16 04:11:08;;;;;;;13.80;7.47;;;;;;;3.74;100.00;97749.59;5027564;28;20459;-71
2022/04/16 04:13:33;;;;;;;13.15;7.20;;;;;;;3.68;100.00;97748.44;5028027;28;20037;-70
2022/04/16 04:15:59;;;;;;;13.75;6.90;;;;;;;3.49;100.00;97759.44;5029009;28;20037;-70
2022/04/16 04:18:24;;;;;;;14.10;7.30;;;;;;;3.26;100.00;97760.19;5028106;28;20505;-70
2022/04/16 04:20:50;;;;;;;14.93;7.47;;;;;;;3.42;100.00;97775.19;5028630;28;20330;-71
2022/04/16 04:23:17;;;;;;;12.90;7.75;;;;;;;3.33;100.00;97768.25;5027554;28;20029;-69
2022/04/16 04:25:43;;;;;;;14.98;7.15;;;;;;;3.43;100.00;97770.75;5027874;28;20125;-71
2022/04/16 04:28:08;;;;;;;12.90;6.93;;;;;;;3.46;100.00;97773.03;5026867;28;20523;-68
2022/04/16 04:30:34;;;;;;;12.73;7.68;;;;;;;3.45;100.00;97780.13;5026451;28;20490;-69
2022/04/16 04:32:59;;;;;;;15.48;8.18;;;;;;;3.51;100.00;97776.81;5029656;28;20245;-69
2022/04/16 04:35:25;;;;;;;13.00;7.47;;;;;;;3.40;100.00;97777.19;5026425;28;20238;-69
2022/04/16 04:37:51;;;;;;;14.82;7.72;;;;;;;3.49;100.00;97775.31;5028654;28;20480;-70
2022/04/16 04:40:17;;;;;;;13.63;7.28;;;;;;;3.53;100.00;97784.59;5025504;28;20080;-69
2022/04/16 04:42:42;;;;;;;15.90;7.47;;;;;;;3.53;100.00;97785.41;5028326;28;20491;-71
2022/04/16 04:45:09;;;;;;;14.15;7.03;;;;;;;3.51;100.00;97786.59;5028895;28;20467;-69
2022/04/16 04:47:36;;;;;;;11.07;7.05;;;;;;;3.54;100.00;97786.22;5026005;28;20076;-70
2022/04/16 04:50:02;;;;;;;11.88;6.75;;;;;;;3.53;100.00;97789.88;5025976;28;20333;-69
2022/04/16 04:52:31;;;;;;;15.52;8.15;;;;;;;3.52;100.00;97790.88;5027618;28;20041;-70
2022/04/16 04:54:57;;;;;;;15.95;7.70;;;;;;;3.53;100.00;97792.53;5027416;28;20111;-70
2022/04/16 04:57:23;;;;;;;14.45;7.78;;;;;;;3.61;100.00;97789.84;5026750;28;20173;-71
2022/04/16 04:59:49;;;;;;;15.00;7.93;;;;;;;3.57;100.00;97805.22;5025803;28;20041;-68
2022/04/16 05:02:15;;;;;;;14.20;7.47;;;;;;;3.64;100.00;97808.00;5024582;28;20439;-71
2022/04/16 05:04:40;;;;;;;13.45;8.18;;;;;;;3.71;100.00;97801.03;5025518;28;20034;-69
2022/04/16 05:07:07;;;;;;;12.32;7.45;;;;;;;3.72;100.00;97804.50;5041298;28;20041;-69
2022/04/16 05:09:33;;;;;;;14.27;8.25;;;;;;;3.70;100.00;97796.75;5026432;28;20084;-69
2022/04/16 05:11:58;;;;;;;16.88;8.63;;;;;;;3.76;100.00;97803.19;5027211;28;20092;-70
2022/04/16 05:14:24;;;;;;;12.75;7.15;;;;;;;3.79;100.00;97805.47;5024607;28;20377;-71
2022/04/16 05:16:50;;;;;;;14.07;6.90;;;;;;;3.79;100.00;97814.25;5025563;28;20080;-69
2022/04/16 05:19:16;;;;;;;12.43;7.13;;;;;;;3.86;100.00;97817.84;5052875;28;20033;-68
2022/04/16 05:21:42;;;;;;;13.40;7.30;;;;;;;4.01;100.00;97819.75;5025368;28;20033;-69
2022/04/16 05:24:08;;;;;;;25.13;7.93;;;;;;;4.04;100.00;97822.06;5027761;28;20117;-71
2022/04/16 05:26:34;;;;;;;14.30;7.65;;;;;;;4.08;100.00;97832.13;5026521;28;20041;-70
2022/04/16 05:28:59;;;;;;;16.95;8.45;;;;;;;4.02;100.00;97829.34;5023727;28;20052;-70
2022/04/16 05:31:27;;;;;;;15.90;8.05;;;;;;;4.07;100.00;97833.16;5022224;28;20040;-71
2022/04/16 05:36:37;;;;;;;16.48;7.45;;;;;;;4.24;100.00;97836.53;5058734;28;20041;-70
2022/04/16 05:39:03;;;;;;;13.82;7.38;;;;;;;4.33;100.00;97842.59;5054567;28;20369;-70
2022/04/16 05:41:28;;;;;;;12.27;7.32;;;;;;;4.52;100.00;97841.31;5026330;28;20057;-71
2022/04/16 05:43:56;;;;;;;12.43;7.15;;;;;;;4.63;100.00;97843.56;5026926;28;20041;-70
2022/04/16 05:46:22;;;;;;;13.40;7.07;;;;;;;4.55;100.00;97849.75;5040083;28;20439;-70
2022/04/16 05:48:47;;;;;;;15.45;7.13;;;;;;;4.66;100.00;97849.31;5023584;28;20120;-69
2022/04/16 05:51:14;;;;;;;14.77;7.72;;;;;;;4.94;100.00;97848.78;5024631;28;20080;-70
2022/04/16 05:53:40;;;;;;;15.02;7.60;;;;;;;5.27;100.00;97839.50;5024399;28;20704;-71
2022/04/16 05:56:07;;;;;;;15.63;7.30;;;;;;;5.37;100.00;97849.03;5023317;28;20034;-69
2022/04/16 05:58:33;;;;;;;11.75;7.15;;;;;;;5.44;100.00;97845.47;5023978;28;20147;-71
2022/04/16 06:01:00;;;;;;;14.00;7.50;;;;;;;5.49;100.00;97852.91;5024097;28;20095;-69
2022/04/16 06:03:27;;;;;;;15.40;7.78;;;;;;;5.54;100.00;97861.97;5023874;28;20377;-71
2022/04/16 06:05:54;;;;;;;13.95;7.43;;;;;;;5.60;100.00;97863.03;5012234;28;20045;-70
2022/04/16 06:08:20;;;;;;;14.63;7.78;;;;;;;5.41;100.00;97858.28;5024292;28;20045;-68
2022/04/16 06:10:45;;;;;;;13.98;7.82;;;;;;;5.31;100.00;97864.69;5024279;28;20427;-68
2022/04/16 06:13:11;;;;;;;12.35;7.25;;;;;;;5.40;100.00;97870.75;5027873;28;20045;-71
2022/04/16 06:15:41;;;;;;;16.08;7.38;;;;;;;5.79;100.00;97867.00;5026207;28;20361;-69
2022/04/16 06:18:08;;;;;;;12.43;7.45;;;;;;;6.16;100.00;97871.41;5027120;28;20063;-68
2022/04/16 06:20:35;;;;;;;16.00;8.10;;;;;;;6.28;100.00;97861.91;5024539;28;20076;-69
2022/04/16 06:23:00;;;;;;;12.65;7.70;;;;;;;6.37;100.00;97871.41;5024236;28;20033;-69
2022/04/16 06:25:26;;;;;;;13.98;7.78;;;;;;;6.52;100.00;97871.38;5026842;28;20341;-69
2022/04/16 06:27:51;;;;;;;14.85;8.18;;;;;;;6.60;100.00;97873.09;5023959;28;20556;-70
2022/04/16 06:30:17;;;;;;;15.40;8.02;;;;;;;6.72;100.00;97866.28;5023082;28;20456;-69
2022/04/16 06:32:42;;;;;;;15.90;7.53;;;;;;;6.82;100.00;97877.44;5024560;28;20045;-69
2022/04/16 06:35:08;;;;;;;14.38;6.78;;;;;;;6.93;100.00;97874.28;5022703;28;20053;-70
2022/04/16 06:37:34;;;;;;;12.63;7.03;;;;;;;7.11;100.00;97865.00;5026261;28;20049;-70
2022/04/16 06:40:02;;;;;;;12.55;7.18;;;;;;;6.96;100.00;97871.22;5024636;28;20120;-70
2022/04/16 06:42:28;;;;;;;11.75;6.13;;;;;;;7.07;100.00;97874.38;5040536;28;20029;-70
2022/04/16 06:44:53;;;;;;;13.82;7.35;;;;;;;7.08;100.00;97871.53;5023949;28;20125;-69
2022/04/16 06:47:18;;;;;;;12.45;6.95;;;;;;;7.17;100.00;97874.88;5022874;28;20025;-70
2022/04/16 06:49:44;;;;;;;14.55;7.18;;;;;;;7.20;100.00;97867.31;5025705;28;20053;-69
2022/04/16 06:52:09;;;;;;;12.63;6.32;;;;;;;7.38;100.00;97877.47;5023781;28;20068;-71
2022/04/16 06:54:36;;;;;;;10.63;5.95;;;;;;;7.26;100.00;97871.06;5023962;28;20049;-68
2022/04/16 06:57:01;;;;;;;11.75;6.85;;;;;;;7.29;100.00;97870.66;5024302;28;20337;-70
2022/04/16 06:59:27;;;;;;;9.98;6.00;;;;;;;7.42;100.00;97868.09;5024612;28;20103;-69
2022/04/16 07:01:52;;;;;;;13.57;6.97;;;;;;;7.60;100.00;97869.44;5021902;28;20076;-69
2022/04/16 07:04:18;;;;;;;11.75;6.45;;;;;;;7.51;100.00;97864.28;5026375;28;20053;-68
2022/04/16 07:06:43;;;;;;;10.93;6.15;;;;;;;7.72;100.00;97868.72;5023812;28;20124;-69
2022/04/16 07:09:10;;;;;;;11.18;6.60;;;;;;;7.76;100.00;97871.81;5020890;28;20140;-70
2022/04/16 07:11:36;;;;;;;10.88;6.22;;;;;;;7.81;100.00;97866.72;5054982;28;20033;-71
2022/04/16 07:14:01;;;;;;;10.32;6.25;;;;;;;7.83;100.00;97870.81;5023903;28;20111;-68
2022/04/16 07:16:30;;;;;;;11.60;6.35;;;;;;;7.89;100.00;97868.41;5023482;28;20033;-69
2022/04/16 07:18:55;;;;;;;10.43;6.32;;;;;;;7.98;100.00;97878.69;5024539;28;20075;-69
2022/04/16 07:21:20;;;;;;;14.05;6.10;;;;;;;8.00;100.00;97876.66;5025431;28;20613;-70
2022/04/16 07:23:46;;;;;;;10.35;5.93;;;;;;;8.21;100.00;97878.38;5025647;28;20434;-69
2022/04/16 07:26:11;;;;;;;9.18;5.80;;;;;;;8.29;100.00;97875.56;5023122;28;20036;-70
2022/04/16 07:28:37;;;;;;;8.98;6.00;;;;;;;8.36;100.00;97873.75;5055437;28;20025;-69
2022/04/16 07:31:03;;;;;;;10.68;5.10;;;;;;;8.55;100.00;97869.50;5023025;28;20085;-70
2022/04/16 07:33:31;;;;;;;7.38;4.80;;;;;;;8.80;100.00;97876.97;5024638;28;20033;-68
2022/04/16 07:35:57;;;;;;;9.77;5.78;;;;;;;8.78;100.00;97868.31;5023013;28;20048;-69
2022/04/16 07:38:22;;;;;;;10.35;5.07;;;;;;;8.75;100.00;97866.06;5025788;28;20170;-68
2022/04/16 07:40:48;;;;;;;8.75;5.43;;;;;;;8.70;100.00;97873.84;5024573;28;20037;-69
2022/04/16 07:43:17;;;;;;;10.48;5.65;;;;;;;8.72;100.00;97871.81;5030111;28;20033;-68
2022/04/16 07:45:43;;;;;;;9.02;5.00;;;;;;;8.73;100.00;97868.94;5046834;28;20030;-69
2022/04/16 07:48:09;;;;;;;8.75;5.07;;;;;;;8.43;100.00;97879.13;5026976;28;20092;-71
2022/04/16 07:50:35;;;;;;;8.60;4.80;;;;;;;8.23;100.00;97880.84;5028067;28;20081;-70
2022/04/16 07:53:01;;;;;;;8.40;5.10;;;;;;;8.04;100.00;97887.75;5028934;28;20052;-68
2022/04/16 07:55:31;;;;;;;6.05;3.78;;;;;;;8.06;100.00;97885.69;5028409;28;20036;-69
2022/04/16 07:57:58;;;;;;;8.83;4.20;;;;;;;8.08;100.00;97889.81;5030007;28;20095;-69
2022/04/16 08:00:23;;;;;;;14.82;4.15;;;;;;;8.51;100.00;97892.28;5025266;28;20048;-70
2022/04/16 08:02:48;;;;;;;7.40;3.97;;;;;;;8.09;100.00;97885.28;5031797;28;20037;-70
2022/04/16 08:05:14;;;;;;;8.40;4.78;;;;;;;8.35;100.00;97888.13;5028312;28;20033;-69
2022/04/16 08:07:39;;;;;;;8.93;4.60;;;;;;;8.76;100.00;97887.22;5026379;28;20029;-69
2022/04/16 08:10:05;;;;;;;7.22;4.28;;;;;;;9.06;100.00;97893.03;5028474;28;20040;-69
2022/04/16 08:12:31;;;;;;;8.10;4.45;;;;;;;9.30;100.00;97898.78;5027511;28;20033;-69
2022/04/16 08:14:56;;;;;;;7.30;4.28;;;;;;;9.16;100.00;97903.28;5026924;28;20754;-71
2022/04/16 08:17:22;;;;;;;7.28;4.68;;;;;;;9.34;100.00;97916.03;5028455;28;20045;-69
2022/04/16 08:19:47;;;;;;;5.70;3.42;;;;;;;9.18;100.00;97922.59;5029420;28;20092;-70
2022/04/16 08:22:18;;;;;;;5.88;3.50;;;;;;;9.10;100.00;97925.47;5025913;28;20045;-69
2022/04/16 08:24:54;;;;;;;6.65;3.47;;;;;;;9.06;100.00;97930.41;5027080;28;20434;-68
2022/04/16 08:27:20;;;;;;;7.07;3.50;;;;;;;9.03;100.00;97922.81;5026455;28;20098;-69
2022/04/16 08:29:46;;;;;;;5.82;3.47;;;;;;;9.17;100.00;97923.63;5023071;28;20556;-69
2022/04/16 08:32:11;;;;;;;5.70;3.03;;;;;;;9.35;100.00;97917.69;5023635;28;20053;-68
2022/04/16 08:34:36;;;;;;;5.93;3.25;;;;;;;9.14;100.00;97916.84;5025592;28;20556;-69
2022/04/16 08:37:02;;;;;;;5.15;2.95;;;;;;;9.24;100.00;97918.28;5024136;28;20057;-71
2022/04/16 08:39:28;;;;;;;7.93;3.25;;;;;;;8.96;100.00;97923.81;5023913;28;20037;-70
2022/04/16 08:41:55;;;;;;;6.63;3.63;;;;;;;9.07;100.00;97929.38;5027359;28;20037;-70
2022/04/16 08:44:22;;;;;;;6.72;3.20;;;;;;;8.93;100.00;97920.50;5025377;28;20034;-70
2022/04/16 08:46:47;;;;;;;5.28;2.95;;;;;;;8.95;100.00;97923.00;5028111;28;20084;-70
2022/04/16 08:49:15;;;;;;;6.53;3.85;;;;;;;9.34;100.00;97918.69;5024729;28;20148;-69
2022/04/16 08:51:43;;;;;;;6.55;3.40;;;;;;;9.76;100.00;97920.13;5024675;28;20279;-68
2022/04/16 08:54:08;;;;;;;6.43;3.47;;;;;;;9.96;100.00;97914.75;5024473;28;20040;-71
2022/04/16 08:56:34;;;;;;;5.40;3.35;;;;;;;9.91;100.00;97917.25;5024405;28;20053;-69
2022/04/16 08:58:59;;;;;;;5.75;3.47;;;;;;;10.18;100.00;97929.50;5026109;28;20348;-69
2022/04/16 09:01:25;;;;;;;8.02;3.38;;;;;;;10.37;100.00;97917.16;5023577;28;20045;-71
2022/04/16 09:03:53;;;;;;;6.75;3.08;;;;;;;10.62;100.00;97927.13;5034414;28;20158;-69
2022/04/16 09:06:24;;;;;;;9.20;4.10;;;;;;;10.23;100.00;97916.38;5026174;28;20442;-69
2022/04/16 09:08:49;;;;;;;8.52;4.07;;;;;;;10.91;100.00;97923.91;5031242;28;20458;-69
2022/04/16 09:11:20;;;;;;;4.95;3.05;;;;;;;11.41;100.00;97918.59;5024959;28;20040;-69
2022/04/16 09:13:49;;;;;;;5.93;3.03;;;;;;;11.17;100.00;97917.53;5027031;28;20490;-68
2022/04/16 09:16:15;;;;;;;6.03;3.17;;;;;;;10.83;100.00;97906.22;5024828;28;20033;-68
2022/04/16 09:18:51;;;;;;;5.68;3.00;;;;;;;10.69;100.00;97914.53;5023039;28;20045;-69
2022/04/16 09:21:24;;;;;;;6.35;3.30;;;;;;;10.63;100.00;97913.53;5025705;28;20030;-69
2022/04/16 09:23:53;;;;;;;5.15;3.10;;;;;;;11.13;100.00;97921.72;5026034;28;20079;-69
2022/04/16 09:26:38;;;;;;;9.27;3.47;;;;;;;11.46;98.42;97926.00;5023383;28;20061;-69
2022/04/16 09:29:09;;;;;;;5.55;3.17;;;;;;;11.30;99.74;97924.69;5025317;28;20044;-69
2022/04/16 09:31:40;;;;;;;5.03;3.03;;;;;;;10.80;100.00;97925.38;5022473;28;20049;-69
2022/04/16 09:34:14;;;;;;;7.78;3.50;;;;;;;10.94;100.00;97928.00;5058025;28;20175;-68
2022/04/16 09:36:40;;;;;;;6.18;3.55;;;;;;;10.92;99.69;97922.84;5026976;28;20495;-70
2022/04/16 09:39:07;;;;;;;6.15;3.17;;;;;;;11.23;100.00;97927.41;5023593;28;20045;-68
2022/04/16 09:41:40;;;;;;;6.60;3.50;;;;;;;11.31;98.61;97923.63;5025743;28;20039;-70
2022/04/16 09:44:25;;;;;;;6.28;2.65;;;;;;;11.29;97.72;97918.50;5026130;28;20041;-69
2022/04/16 09:46:55;;;;;;;4.43;2.45;;;;;;;11.46;100.00;97926.00;5025692;28;20042;-69
2022/04/16 09:49:21;;;;;;;5.55;2.92;;;;;;;11.54;100.00;97937.28;5024408;28;20048;-68
2022/04/16 09:51:48;;;;;;;5.85;2.92;;;;;;;11.63;92.39;97932.44;5027748;28;20037;-68
2022/04/16 09:54:15;;;;;;;5.85;3.22;;;;;;;11.44;99.69;97928.91;5023426;28;20438;-70
2022/04/16 09:56:45;;;;;;;5.63;2.97;;;;;;;11.48;100.00;97924.72;5024008;28;20056;-69
2022/04/16 09:59:12;;;;;;;6.60;3.03;;;;;;;11.49;93.57;97922.88;5025770;28;20075;-69
2022/04/16 10:01:41;;;;;;;7.22;2.80;;;;;;;11.55;88.59;97925.50;5023913;28;20118;-69
2022/04/16 10:04:08;;;;;;;5.38;2.83;;;;;;;11.95;97.09;97938.59;5024920;28;20028;-70
2022/04/16 10:06:34;;;;;;;6.15;2.70;;;;;;;12.08;92.46;97934.97;5027222;28;20142;-70
2022/04/16 10:09:13;;;;;;;4.43;2.25;;;;;;;12.21;89.84;97929.44;5027667;28;20277;-68
2022/04/16 10:12:59;;;;;;;6.22;3.03;;;;;;;11.99;88.19;97932.56;5040715;28;20037;-69
2022/04/16 10:14:45;;;;;;;7.35;2.42;;;;;;;11.96;81.51;97927.63;5025834;28;20483;-69
2022/04/16 10:17:14;;;;;;;6.05;2.22;;;;;;;12.30;86.58;97911.19;5022849;28;20053;-69
2022/04/16 10:19:45;;;;;;;3.70;2.28;;;;;;;12.19;86.29;97916.25;5024202;28;20503;-68
2022/04/16 10:22:21;;;;;;;5.47;2.40;;;;;;;12.21;75.61;97914.16;5025082;28;20032;-69
2022/04/16 10:24:48;;;;;;;5.63;2.38;;;;;;;12.47;94.31;97925.66;5027530;28;20394;-70
2022/04/16 10:27:22;;;;;;;4.80;2.30;;;;;;;12.78;87.35;97913.91;5026261;28;20481;-69
2022/04/16 10:29:48;;;;;;;5.28;2.08;;;;;;;13.10;87.87;97915.28;5023348;28;20037;-69
2022/04/16 10:32:17;;;;;;;5.97;2.00;;;;;;;13.44;55.63;97918.31;5024092;28;20048;-69
2022/04/16 10:34:44;;;;;;;5.18;2.50;;;;;;;13.59;79.36;97921.38;5026675;28;20049;-70
2022/04/16 10:37:25;;;;;;;6.10;2.40;;;;;;;13.76;53.58;97912.63;5026024;28;20094;-71
2022/04/16 10:39:54;;;;;;;3.63;1.77;;;;;;;14.14;76.54;97915.66;5023671;28;20452;-70
2022/04/16 10:42:32;;;;;;;4.45;2.00;;;;;;;14.42;54.11;97914.09;5024041;28;20091;-70
2022/04/16 10:45:09;;;;;;;4.80;2.25;;;;;;;14.54;62.12;97935.63;4992873;28;20430;-69
2022/04/16 10:47:38;;;;;;;5.13;2.17;;;;;;;15.15;53.37;97924.16;4997440;28;20061;-69
2022/04/16 10:50:22;;;;;;;4.97;2.50;;;;;;;16.67;59.12;97912.19;5024130;28;20070;-69
2022/04/16 10:53:01;;;;;;;4.60;1.67;;;;;;;17.74;43.57;97920.59;5025455;28;20123;-69
2022/04/16 10:55:32;;;;;;;4.65;1.88;;;;;;;18.97;36.82;97922.91;5023097;28;20097;-70
2022/04/16 10:58:05;;;;;;;4.43;1.90;;;;;;;20.92;37.91;97905.34;5024026;28;20052;-69
2022/04/16 11:00:44;;;;;;;3.88;1.65;;;;;;;22.10;35.72;97912.44;5021666;28;20068;-69
2022/04/16 11:03:12;;;;;;;3.97;1.80;;;;;;;22.20;28.92;97909.63;5026156;28;20140;-69
2022/04/16 11:05:40;;;;;;;5.55;1.70;;;;;;;23.47;30.56;97911.84;5022716;28;20037;-69
2022/04/16 11:08:07;;;;;;;4.13;2.03;;;;;;;24.70;29.47;97909.41;5024106;28;20040;-69
2022/04/16 11:10:33;;;;;;;4.95;1.98;;;;;;;24.53;29.28;97906.47;5023304;28;20144;-69
2022/04/16 11:13:01;;;;;;;3.20;1.50;;;;;;;24.92;24.85;97905.94;5022613;28;20072;-69
2022/04/16 11:15:29;;;;;;;3.67;1.70;;;;;;;25.62;23.94;97901.91;5021914;28;20124;-70
2022/04/16 11:17:58;;;;;;;4.18;1.50;;;;;;;24.35;25.84;97907.38;5023648;28;20052;-70
2022/04/16 11:20:26;;;;;;;3.55;1.70;;;;;;;26.52;25.46;97907.31;5021282;28;20052;-71
2022/04/16 11:22:53;;;;;;;4.45;1.55;;;;;;;27.90;26.85;97895.72;5023907;28;20341;-72
2022/04/16 11:25:22;;;;;;;3.72;1.67;;;;;;;28.55;21.79;97892.59;5025885;28;20037;-69
2022/04/16 11:36:07;;;;;;;2.20;1.13;;;;;;;26.56;20.04;97891.84;5022165;28;20392;-71
2022/04/16 11:38:36;;;;;;;2.58;1.02;;;;;;;25.89;23.49;97890.03;5023749;28;20041;-71
2022/04/16 11:41:04;;;;;;;4.07;1.38;;;;;;;26.91;21.79;97890.78;5022522;28;20588;-69
2022/04/16 11:43:30;;;;;;;3.38;1.30;;;;;;;28.22;21.50;97894.31;5023866;28;20053;-71
2022/04/16 11:46:01;;;;;;;12.27;1.42;;;;;;;29.31;17.66;97877.91;5054388;28;20099;-70
2022/04/16 11:48:26;;;;;;;5.27;1.47;;;;;;;27.49;21.91;97891.53;5021162;28;20032;-69
2022/04/16 11:50:52;;;;;;;5.85;1.75;;;;;;;28.49;21.31;97879.38;5025159;28;20655;-70